createdAt,value
2022-08-20T00:00:07.441Z,46.22
2022-08-20T00:02:43.583Z,46.58
2022-08-20T00:05:11.452Z,47.01
2022-08-20T00:07:38.395Z,47.35
2022-08-20T00:10:06.927Z,47.30
2022-08-20T00:12:34.944Z,47.32
2022-08-20T00:15:02.400Z,47.42
2022-08-20T00:17:37.396Z,47.79
2022-08-20T00:20:10.936Z,48.18
2022-08-20T00:22:38.110Z,48.34
2022-08-20T00:25:06.566Z,48.94
2022-08-20T00:27:33.335Z,49.25
2022-08-20T00:30:00.117Z,48.91
2022-08-20T00:32:26.912Z,49.08
2022-08-20T00:34:53.601Z,49.15
2022-08-20T00:37:20.344Z,49.44
2022-08-20T00:39:47.073Z,49.43
2022-08-20T00:42:13.837Z,49.76
2022-08-20T00:44:47.637Z,49.55
2022-08-20T00:47:14.407Z,49.82
2022-08-20T00:49:41.204Z,50.24
2022-08-20T00:52:13.872Z,51.09
2022-08-20T00:54:48.368Z,50.89
2022-08-20T00:57:24.506Z,50.72
2022-08-20T00:59:52.524Z,51.49
2022-08-20T01:02:23.055Z,51.08
2022-08-20T01:04:54.589Z,51.06
2022-08-20T01:07:35.024Z,51.73
2022-08-20T01:10:09.297Z,52.14
2022-08-20T01:12:40.191Z,52.31
2022-08-20T01:15:13.280Z,52.44
2022-08-20T01:17:45.749Z,52.38
2022-08-20T01:20:34.245Z,52.70
2022-08-20T01:23:34.773Z,52.64
2022-08-20T01:26:13.488Z,53.09
2022-08-20T01:28:40.105Z,53.02
2022-08-20T01:31:16.660Z,53.24
2022-08-20T01:33:45.317Z,53.38
2022-08-20T01:36:14.750Z,53.66
2022-08-20T01:38:53.961Z,53.54
2022-08-20T01:41:36.672Z,53.65
2022-08-20T01:44:04.827Z,53.55
2022-08-20T01:46:43.622Z,53.89
2022-08-20T01:49:15.651Z,53.61
2022-08-20T01:51:49.285Z,53.58
2022-08-20T01:54:16.826Z,53.35
2022-08-20T01:56:55.442Z,53.72
2022-08-20T01:59:22.221Z,53.51
2022-08-20T02:01:49.417Z,53.63
2022-08-20T02:04:18.053Z,53.78
2022-08-20T02:06:57.288Z,53.82
2022-08-20T02:09:30.552Z,53.60
2022-08-20T02:11:57.806Z,53.81
2022-08-20T02:14:25.303Z,54.02
2022-08-20T02:16:55.388Z,54.03
2022-08-20T02:19:27.487Z,54.15
2022-08-20T02:21:59.627Z,54.01
2022-08-20T02:24:26.441Z,54.10
2022-08-20T02:26:53.355Z,53.96
2022-08-20T02:29:20.092Z,53.55
2022-08-20T02:32:32.770Z,52.94
2022-08-20T02:34:34.884Z,52.43
2022-08-20T02:37:03.149Z,52.12
2022-08-20T02:39:29.882Z,51.42
2022-08-20T02:41:56.636Z,51.41
2022-08-20T02:44:23.332Z,51.08
2022-08-20T02:46:50.532Z,50.91
2022-08-20T02:49:18.308Z,50.84
2022-08-20T02:51:45.578Z,51.05
2022-08-20T02:54:13.801Z,51.04
2022-08-20T02:56:41.685Z,50.81
2022-08-20T02:59:08.538Z,50.98
2022-08-20T03:01:38.397Z,50.86
2022-08-20T03:04:05.775Z,50.97
2022-08-20T03:06:32.508Z,50.81
2022-08-20T03:08:59.255Z,50.83
2022-08-20T03:11:25.997Z,51.20
2022-08-20T03:13:52.752Z,51.28
2022-08-20T03:16:20.063Z,51.03
2022-08-20T03:18:47.885Z,50.83
2022-08-20T03:21:18.815Z,50.81
2022-08-20T03:23:45.966Z,50.14
2022-08-20T03:26:13.167Z,50.78
2022-08-20T03:28:41.330Z,50.73
2022-08-20T03:31:08.468Z,50.91
2022-08-20T03:33:36.300Z,51.23
2022-08-20T03:36:03.514Z,50.99
2022-08-20T03:38:33.065Z,51.16
2022-08-20T03:41:01.973Z,51.32
2022-08-20T03:43:29.292Z,51.52
2022-08-20T03:45:55.963Z,52.04
2022-08-20T03:48:23.011Z,52.50
2022-08-20T03:50:51.089Z,53.06
2022-08-20T03:53:18.161Z,53.23
2022-08-20T03:55:53.900Z,52.47
2022-08-20T03:58:34.793Z,52.34
2022-08-20T04:01:05.905Z,52.79
2022-08-20T04:03:32.787Z,51.96
2022-08-20T04:05:59.585Z,51.90
2022-08-20T04:08:29.426Z,52.14
2022-08-20T04:10:57.705Z,53.02
2022-08-20T04:13:25.883Z,53.61
2022-08-20T04:15:55.644Z,54.26
2022-08-20T04:18:24.289Z,54.43
2022-08-20T04:20:52.210Z,54.20
2022-08-20T04:23:21.190Z,55.03
2022-08-20T04:25:48.335Z,55.17
2022-08-20T04:28:25.249Z,55.73
2022-08-20T04:30:52.449Z,56.12
2022-08-20T04:33:22.716Z,55.95
2022-08-20T04:36:02.671Z,55.78
2022-08-20T04:38:50.095Z,56.21
2022-08-20T04:41:22.735Z,55.81
2022-08-20T04:43:53.956Z,55.29
2022-08-20T04:46:23.194Z,56.35
2022-08-20T04:48:50.581Z,55.58
2022-08-20T04:51:18.303Z,55.02
2022-08-20T04:53:51.683Z,55.42
2022-08-20T04:56:39.567Z,56.41
2022-08-20T04:59:08.054Z,56.30
2022-08-20T05:01:35.056Z,56.53
2022-08-20T05:04:02.082Z,56.87
2022-08-20T05:06:31.375Z,57.20
2022-08-20T05:09:00.344Z,57.92
2022-08-20T05:11:36.049Z,57.96
2022-08-20T05:14:08.075Z,57.59
2022-08-20T05:16:39.588Z,57.79
2022-08-20T05:19:09.044Z,57.88
2022-08-20T05:21:36.988Z,56.81
2022-08-20T05:24:04.584Z,56.67
2022-08-20T05:26:31.211Z,57.50
2022-08-20T05:28:59.482Z,57.63
2022-08-20T05:31:31.224Z,57.62
2022-08-20T05:34:02.050Z,58.38
2022-08-20T05:36:29.044Z,58.93
2022-08-20T05:38:55.829Z,58.62
2022-08-20T05:41:29.110Z,58.49
2022-08-20T05:44:03.357Z,58.60
2022-08-20T05:46:31.642Z,58.45
2022-08-20T05:49:00.636Z,57.87
2022-08-20T05:51:28.727Z,58.24
2022-08-20T05:53:59.195Z,58.60
2022-08-20T05:56:30.447Z,58.39
2022-08-20T05:59:04.728Z,58.89
2022-08-20T06:01:33.478Z,58.86
2022-08-20T06:04:19.655Z,59.20
2022-08-20T06:06:47.310Z,59.40
2022-08-20T06:09:16.684Z,59.80
2022-08-20T06:11:59.489Z,59.72
2022-08-20T06:14:26.587Z,59.83
2022-08-20T06:16:57.850Z,59.61
2022-08-20T06:19:27.002Z,59.70
2022-08-20T06:21:56.376Z,59.38
2022-08-20T06:24:23.133Z,59.44
2022-08-20T06:27:02.570Z,59.12
2022-08-20T06:29:29.853Z,58.70
2022-08-20T06:31:56.823Z,58.95
2022-08-20T06:34:28.392Z,59.27
2022-08-20T06:36:59.201Z,59.98
2022-08-20T06:39:28.726Z,60.03
2022-08-20T06:41:56.135Z,60.98
2022-08-20T06:44:24.222Z,61.24
2022-08-20T06:46:50.927Z,61.77
2022-08-20T06:49:17.616Z,62.27
2022-08-20T06:51:45.088Z,62.68
2022-08-20T06:54:17.200Z,62.37
2022-08-20T06:56:44.136Z,62.80
2022-08-20T06:59:10.800Z,62.36
2022-08-20T07:01:37.465Z,62.11
2022-08-20T07:04:05.514Z,62.06
2022-08-20T07:06:32.271Z,62.60
2022-08-20T07:08:58.934Z,62.76
2022-08-20T07:11:28.687Z,63.05
2022-08-20T07:13:57.187Z,62.86
2022-08-20T07:16:24.555Z,62.58
2022-08-20T07:18:51.485Z,62.75
2022-08-20T07:21:18.151Z,62.79
2022-08-20T07:23:45.054Z,61.98
2022-08-20T07:26:12.911Z,62.53
2022-08-20T07:28:39.943Z,62.66
2022-08-20T07:31:25.690Z,63.72
2022-08-20T07:33:54.046Z,63.59
2022-08-20T07:36:20.900Z,63.69
2022-08-20T07:38:50.767Z,63.30
2022-08-20T07:41:18.075Z,63.33
2022-08-20T07:43:45.739Z,63.01
2022-08-20T07:46:16.060Z,61.60
2022-08-20T07:48:46.795Z,61.96
2022-08-20T07:51:19.067Z,60.38
2022-08-20T07:53:47.730Z,59.92
2022-08-20T07:56:17.138Z,60.06
2022-08-20T07:58:55.144Z,60.58
2022-08-20T08:01:29.545Z,60.34
2022-08-20T08:03:57.637Z,60.79
2022-08-20T08:06:28.994Z,60.54
2022-08-20T08:08:59.534Z,60.19
2022-08-20T08:11:26.430Z,60.53
2022-08-20T08:13:53.177Z,60.49
2022-08-20T08:16:20.136Z,60.24
2022-08-20T08:18:53.151Z,60.55
2022-08-20T08:21:22.337Z,60.61
2022-08-20T08:23:50.255Z,60.48
2022-08-20T08:26:18.945Z,60.64
2022-08-20T08:28:46.643Z,60.35
2022-08-20T08:31:14.641Z,60.61
2022-08-20T08:33:42.249Z,59.89
2022-08-20T08:36:14.009Z,59.51
2022-08-20T08:38:44.191Z,60.00
2022-08-20T08:41:34.079Z,60.07
2022-08-20T08:44:12.868Z,59.84
2022-08-20T08:46:43.497Z,60.08
2022-08-20T08:49:14.305Z,59.92
2022-08-20T08:51:48.048Z,60.01
2022-08-20T08:54:18.590Z,60.15
2022-08-20T08:56:50.363Z,59.13
2022-08-20T08:59:18.421Z,58.81
2022-08-20T09:01:54.416Z,59.37
2022-08-20T09:04:28.439Z,58.14
2022-08-20T09:06:55.199Z,57.66
2022-08-20T09:09:32.122Z,58.56
2022-08-20T09:12:08.635Z,57.69
2022-08-20T09:14:36.122Z,57.09
2022-08-20T09:17:03.780Z,56.49
2022-08-20T09:19:30.424Z,57.14
2022-08-20T09:21:57.147Z,57.28
2022-08-20T09:24:24.829Z,56.61
2022-08-20T09:26:51.507Z,56.56
2022-08-20T09:29:18.205Z,56.80
2022-08-20T09:31:45.201Z,56.62
2022-08-20T09:34:13.648Z,56.70
2022-08-20T09:36:40.342Z,56.08
2022-08-20T09:39:07.238Z,55.54
2022-08-20T09:41:34.568Z,55.01
2022-08-20T09:44:02.151Z,55.64
2022-08-20T09:46:28.815Z,55.60
2022-08-20T09:48:55.533Z,55.81
2022-08-20T09:51:22.787Z,56.07
2022-08-20T09:53:50.401Z,55.79
2022-08-20T09:56:17.446Z,56.77
2022-08-20T09:58:54.980Z,57.67
2022-08-20T10:01:23.015Z,56.67
2022-08-20T10:03:51.036Z,56.85
2022-08-20T10:06:20.142Z,57.71
2022-08-20T10:08:48.149Z,58.55
2022-08-20T10:11:15.987Z,57.81
2022-08-20T10:13:45.360Z,56.49
2022-08-20T10:16:12.232Z,56.39
2022-08-20T10:18:39.247Z,56.30
2022-08-20T10:21:12.942Z,55.54
2022-08-20T10:23:40.592Z,55.94
2022-08-20T10:26:09.065Z,56.13
2022-08-20T10:28:35.929Z,55.75
2022-08-20T10:31:04.628Z,55.48
2022-08-20T10:33:31.546Z,55.00
2022-08-20T10:36:08.450Z,54.46
2022-08-20T10:38:35.481Z,54.41
2022-08-20T10:41:02.370Z,53.48
2022-08-20T10:43:29.358Z,53.93
2022-08-20T10:45:56.505Z,53.68
2022-08-20T10:48:23.299Z,52.53
2022-08-20T10:50:50.961Z,51.43
2022-08-20T10:53:18.171Z,51.42
2022-08-20T10:55:45.348Z,51.32
2022-08-20T10:58:13.160Z,49.19
2022-08-20T11:00:41.127Z,45.84
2022-08-20T11:03:07.935Z,45.84
2022-08-20T11:05:34.705Z,46.30
2022-08-20T11:08:03.306Z,46.12
2022-08-20T11:10:33.939Z,46.14
2022-08-20T11:13:05.706Z,46.49
2022-08-20T11:15:35.496Z,43.98
2022-08-20T11:18:03.253Z,44.43
2022-08-20T11:20:31.859Z,44.33
2022-08-20T11:22:59.389Z,42.98
2022-08-20T11:25:27.108Z,42.70
2022-08-20T11:27:55.283Z,43.34
2022-08-20T11:30:32.954Z,44.07
2022-08-20T11:33:01.012Z,43.52
2022-08-20T11:35:49.079Z,43.67
2022-08-20T11:38:17.377Z,44.34
2022-08-20T11:40:44.287Z,44.19
2022-08-20T11:43:16.147Z,44.06
2022-08-20T11:45:46.745Z,43.43
2022-08-20T11:48:14.701Z,42.51
2022-08-20T11:50:41.763Z,41.73
2022-08-20T11:53:08.445Z,41.66
2022-08-20T11:55:36.081Z,42.24
2022-08-20T11:58:03.832Z,41.90
2022-08-20T12:00:33.964Z,42.15
2022-08-20T12:03:08.660Z,42.08
2022-08-20T12:05:38.275Z,43.00
2022-08-20T12:08:06.023Z,42.70
2022-08-20T12:10:33.400Z,42.65
2022-08-20T12:13:00.315Z,42.78
2022-08-20T12:15:29.694Z,43.18
2022-08-20T12:17:56.597Z,42.07
2022-08-20T12:20:24.088Z,42.09
2022-08-20T12:22:50.958Z,41.72
2022-08-20T12:25:17.875Z,41.77
2022-08-20T12:27:46.213Z,42.05
2022-08-20T12:30:19.872Z,39.04
2022-08-20T12:32:47.309Z,39.33
2022-08-20T12:35:15.981Z,38.01
2022-08-20T12:37:43.550Z,37.24
2022-08-20T12:40:14.352Z,37.13
2022-08-20T12:42:41.408Z,37.69
2022-08-20T12:45:09.164Z,36.77
2022-08-20T12:47:38.910Z,34.87
2022-08-20T12:50:12.773Z,33.18
2022-08-20T12:52:40.093Z,32.93
2022-08-20T12:55:09.285Z,34.07
2022-08-20T12:58:00.210Z,32.11
2022-08-20T13:00:34.078Z,32.28
2022-08-20T13:03:03.323Z,32.02
2022-08-20T13:05:31.620Z,32.43
2022-08-20T13:07:58.705Z,32.67
2022-08-20T13:10:37.801Z,31.53
2022-08-20T13:13:04.770Z,31.96
2022-08-20T13:15:32.261Z,32.42
2022-08-20T13:18:01.927Z,32.03
2022-08-20T13:20:31.029Z,31.26
2022-08-20T13:23:02.943Z,31.22
2022-08-20T13:25:29.807Z,30.64
2022-08-20T13:27:59.405Z,30.22
2022-08-20T13:30:27.042Z,31.05
2022-08-20T13:32:53.957Z,29.98
2022-08-20T13:35:21.046Z,29.82
2022-08-20T13:37:49.259Z,28.26
2022-08-20T13:40:16.674Z,26.92
2022-08-20T13:42:43.475Z,25.68
2022-08-20T13:45:10.878Z,26.30
2022-08-20T13:47:39.327Z,25.69
2022-08-20T13:50:12.909Z,26.70
2022-08-20T13:52:40.201Z,25.49
2022-08-20T13:55:11.429Z,24.53
2022-08-20T13:57:39.012Z,25.31
2022-08-20T14:00:09.977Z,23.46
2022-08-20T14:02:37.979Z,23.14
2022-08-20T14:05:04.997Z,23.12
2022-08-20T14:07:32.938Z,23.73
2022-08-20T14:10:04.614Z,22.66
2022-08-20T14:12:31.413Z,21.65
2022-08-20T14:14:58.279Z,21.73
2022-08-20T14:17:30.909Z,22.38
2022-08-20T14:20:07.462Z,21.03
2022-08-20T14:22:36.597Z,21.28
2022-08-20T14:25:05.585Z,20.62
2022-08-20T14:27:34.033Z,20.91
2022-08-20T14:30:02.146Z,21.16
2022-08-20T14:32:30.412Z,20.52
2022-08-20T14:34:59.176Z,21.44
2022-08-20T14:37:52.222Z,20.47
2022-08-20T14:40:20.512Z,20.90
2022-08-20T14:42:51.419Z,19.89
2022-08-20T14:45:19.468Z,19.58
2022-08-20T14:47:54.066Z,19.57
2022-08-20T14:50:23.527Z,20.31
2022-08-20T14:52:50.274Z,19.45
2022-08-20T14:55:19.689Z,18.64
2022-08-20T14:57:47.050Z,17.29
2022-08-20T15:00:18.755Z,15.95
2022-08-20T15:02:46.778Z,15.06
2022-08-20T15:05:14.621Z,14.87
2022-08-20T15:07:44.873Z,15.06
2022-08-20T15:10:17.616Z,13.96
2022-08-20T15:12:44.303Z,13.21
2022-08-20T15:15:15.837Z,12.67
2022-08-20T15:17:46.382Z,12.56
2022-08-20T15:20:20.850Z,11.65
2022-08-20T15:22:49.193Z,12.18
2022-08-20T15:25:20.388Z,12.95
2022-08-20T15:27:47.667Z,13.51
2022-08-20T15:30:18.496Z,13.53
2022-08-20T15:32:45.765Z,15.74
2022-08-20T15:35:13.299Z,16.21
2022-08-20T15:37:44.916Z,17.89
2022-08-20T15:40:15.980Z,18.64
2022-08-20T15:42:43.621Z,18.90
2022-08-20T15:45:21.949Z,19.60
2022-08-20T15:48:07.044Z,19.89
2022-08-20T15:50:33.728Z,19.92
2022-08-20T15:53:19.808Z,19.98
2022-08-20T15:55:56.354Z,20.13
2022-08-20T15:58:32.674Z,19.68
2022-08-20T16:01:23.951Z,18.64
2022-08-20T16:04:26.795Z,19.64
2022-08-20T16:07:13.009Z,19.02
2022-08-20T16:09:51.781Z,18.69
2022-08-20T16:12:34.955Z,18.68
2022-08-20T16:15:09.060Z,18.23
2022-08-20T16:17:51.356Z,19.21
2022-08-20T16:20:35.891Z,18.11
2022-08-20T16:23:03.881Z,18.50
2022-08-20T16:25:39.395Z,19.65
2022-08-20T16:28:28.790Z,18.33
2022-08-20T16:31:04.778Z,20.48
2022-08-20T16:33:39.134Z,18.99
2022-08-20T16:36:14.730Z,17.91
2022-08-20T16:38:54.513Z,18.01
2022-08-20T16:41:28.206Z,19.01
2022-08-20T16:44:02.358Z,18.17
2022-08-20T16:46:37.965Z,18.30
2022-08-20T16:49:13.279Z,17.92
2022-08-20T16:51:51.804Z,18.39
2022-08-20T16:54:29.317Z,18.99
2022-08-20T16:57:01.702Z,18.71
2022-08-20T16:59:30.636Z,18.97
2022-08-20T17:02:10.649Z,20.05
2022-08-20T17:04:58.435Z,20.47
2022-08-20T17:07:33.313Z,22.19
2022-08-20T17:10:14.524Z,21.42
2022-08-20T17:12:41.227Z,21.70
2022-08-20T17:15:08.426Z,21.54
2022-08-20T17:17:37.074Z,21.66
2022-08-20T17:20:20.568Z,22.64
2022-08-20T17:22:51.229Z,22.38
2022-08-20T17:25:28.420Z,22.31
2022-08-20T17:28:00.323Z,22.87
2022-08-20T17:30:36.629Z,22.83
2022-08-20T17:33:06.536Z,23.28
2022-08-20T17:35:35.905Z,23.47
2022-08-20T17:38:04.141Z,22.69
2022-08-20T17:40:39.893Z,22.58
2022-08-20T17:43:09.909Z,22.99
2022-08-20T17:45:41.289Z,23.61
2022-08-20T17:48:13.861Z,23.62
2022-08-20T17:50:42.810Z,23.39
2022-08-20T17:53:22.984Z,23.14
2022-08-20T17:55:54.495Z,24.13
2022-08-20T17:58:29.320Z,23.00
2022-08-20T18:00:55.970Z,23.15
2022-08-20T18:03:26.373Z,23.91
2022-08-20T18:05:58.155Z,23.64
2022-08-20T18:08:39.524Z,23.76
2022-08-20T18:11:12.433Z,24.58
2022-08-20T18:13:45.084Z,24.59
2022-08-20T18:16:30.320Z,25.13
2022-08-20T18:19:07.173Z,25.60
2022-08-20T18:21:55.525Z,26.27
2022-08-20T18:24:29.888Z,26.92
2022-08-20T18:27:03.311Z,27.81
2022-08-20T18:29:41.019Z,28.22
2022-08-20T18:32:34.481Z,28.54
2022-08-20T18:35:45.657Z,29.23
2022-08-20T18:38:28.982Z,29.80
2022-08-20T18:41:24.104Z,30.01
2022-08-20T18:44:03.626Z,30.31
2022-08-20T18:46:30.229Z,30.85
2022-08-20T18:49:01.648Z,31.07
2022-08-20T18:51:35.563Z,30.98
2022-08-20T18:54:02.777Z,31.72
2022-08-20T18:56:33.183Z,32.04
2022-08-20T18:59:14.465Z,32.66
2022-08-20T19:01:41.979Z,32.64
2022-08-20T19:04:31.893Z,33.04
2022-08-20T19:07:04.681Z,33.55
2022-08-20T19:09:56.605Z,33.65
2022-08-20T19:12:58.592Z,33.60
2022-08-20T19:15:26.309Z,33.80
2022-08-20T19:18:11.384Z,33.95
2022-08-20T19:20:41.849Z,34.06
2022-08-20T19:23:18.582Z,34.19
2022-08-20T19:25:58.693Z,34.33
2022-08-20T19:28:48.315Z,34.29
2022-08-20T19:31:23.279Z,34.59
2022-08-20T19:34:02.458Z,34.16
2022-08-20T19:36:30.266Z,34.43
2022-08-20T19:39:01.414Z,34.52
2022-08-20T19:41:31.974Z,34.75
2022-08-20T19:44:00.636Z,34.95
2022-08-20T19:46:38.445Z,35.35
2022-08-20T19:49:23.821Z,34.89
2022-08-20T19:51:56.215Z,35.25
2022-08-20T19:54:26.033Z,35.63
2022-08-20T19:56:57.738Z,35.52
2022-08-20T19:59:25.708Z,35.33
2022-08-20T20:02:00.144Z,35.51
2022-08-20T20:04:29.884Z,35.97
2022-08-20T20:06:58.272Z,35.77
2022-08-20T20:09:27.761Z,35.92
2022-08-20T20:12:04.485Z,35.99
2022-08-20T20:14:34.225Z,35.63
2022-08-20T20:17:05.049Z,35.60
2022-08-20T20:19:44.048Z,35.46
2022-08-20T20:22:30.262Z,35.73
2022-08-20T20:25:19.242Z,35.98
2022-08-20T20:27:51.754Z,35.97
2022-08-20T20:30:31.530Z,36.27
2022-08-20T20:33:01.180Z,36.05
2022-08-20T20:35:35.693Z,35.97
2022-08-20T20:38:12.983Z,36.32
2022-08-20T20:40:49.852Z,36.05
2022-08-20T20:43:36.803Z,36.28
2022-08-20T20:46:12.645Z,36.34
2022-08-20T20:48:50.165Z,36.34
2022-08-20T20:51:30.997Z,36.73
2022-08-20T20:54:08.489Z,36.50
2022-08-20T20:56:55.923Z,36.95
2022-08-20T20:59:22.601Z,36.90
2022-08-20T21:01:50.699Z,36.83
2022-08-20T21:04:19.951Z,36.91
2022-08-20T21:06:47.692Z,37.16
2022-08-20T21:09:14.829Z,37.08
2022-08-20T21:11:41.438Z,37.42
2022-08-20T21:14:08.235Z,37.37
2022-08-20T21:16:34.962Z,37.32
2022-08-20T21:19:04.939Z,37.24
2022-08-20T21:21:31.687Z,37.30
2022-08-20T21:23:58.290Z,37.42
2022-08-20T21:26:27.445Z,37.21
2022-08-20T21:28:54.532Z,37.18
2022-08-20T21:31:21.318Z,37.25
2022-08-20T21:33:47.967Z,37.04
2022-08-20T21:36:14.758Z,37.49
2022-08-20T21:38:41.487Z,37.37
2022-08-20T21:41:08.333Z,37.50
2022-08-20T21:43:35.495Z,38.05
2022-08-20T21:46:03.484Z,37.73
2022-08-20T21:48:30.084Z,38.03
2022-08-20T21:50:56.833Z,37.91
2022-08-20T21:53:23.595Z,38.18
2022-08-20T21:55:50.716Z,38.15
2022-08-20T21:58:19.490Z,38.11
2022-08-20T22:00:59.702Z,38.11
2022-08-20T22:03:32.079Z,38.11
2022-08-20T22:06:00.407Z,38.44
2022-08-20T22:08:28.557Z,38.29
2022-08-20T22:10:57.246Z,38.42
2022-08-20T22:13:28.206Z,38.90
2022-08-20T22:15:54.893Z,38.81
2022-08-20T22:18:22.140Z,38.71
2022-08-20T22:20:49.245Z,38.91
2022-08-20T22:23:16.019Z,39.21
2022-08-20T22:25:42.737Z,38.84
2022-08-20T22:28:09.564Z,39.12
2022-08-20T22:30:40.458Z,39.58
2022-08-20T22:33:12.747Z,39.70
2022-08-20T22:35:46.673Z,39.67
2022-08-20T22:38:13.728Z,39.73
2022-08-20T22:40:41.049Z,39.66
2022-08-20T22:43:07.920Z,39.89
2022-08-20T22:45:35.612Z,39.95
2022-08-20T22:48:03.027Z,40.11
2022-08-20T22:50:30.162Z,40.20
2022-08-20T22:52:57.361Z,40.62
2022-08-20T22:55:24.392Z,40.55
2022-08-20T22:57:51.180Z,40.72
2022-08-20T23:00:18.902Z,40.71
2022-08-20T23:02:54.987Z,40.34
2022-08-20T23:05:24.489Z,40.44
2022-08-20T23:07:54.332Z,40.44
2022-08-20T23:10:22.662Z,40.43
2022-08-20T23:12:49.368Z,40.21
2022-08-20T23:15:16.150Z,40.54
2022-08-20T23:17:43.692Z,40.81
2022-08-20T23:20:13.791Z,40.96
2022-08-20T23:22:40.553Z,41.59
2022-08-20T23:25:09.662Z,41.29
2022-08-20T23:27:50.753Z,40.71
2022-08-20T23:30:20.308Z,40.55
2022-08-20T23:32:47.163Z,40.78
2022-08-20T23:35:14.405Z,40.69
2022-08-20T23:37:51.629Z,40.61
2022-08-20T23:40:28.248Z,40.57
2022-08-20T23:42:56.881Z,40.73
2022-08-20T23:45:23.973Z,40.66
2022-08-20T23:47:51.343Z,40.51
2022-08-20T23:50:21.501Z,40.54
2022-08-20T23:52:51.695Z,40.71
2022-08-20T23:55:19.600Z,40.81
2022-08-20T23:57:46.485Z,40.39
